createdAt,value
2023-05-03T00:00:08.776Z,46.71
2023-05-03T00:02:39.259Z,46.87
2023-05-03T00:05:08.507Z,47.11
2023-05-03T00:07:35.665Z,46.99
2023-05-03T00:10:02.341Z,47.24
2023-05-03T00:12:30.002Z,46.96
2023-05-03T00:14:56.572Z,47.35
2023-05-03T00:17:23.262Z,47.00
2023-05-03T00:19:49.999Z,47.20
2023-05-03T00:22:16.777Z,47.41
2023-05-03T00:24:43.382Z,47.43
2023-05-03T00:27:10.031Z,47.15
2023-05-03T00:29:36.565Z,47.78
2023-05-03T00:32:03.167Z,47.50
2023-05-03T00:34:29.821Z,48.02
2023-05-03T00:36:56.523Z,47.63
2023-05-03T00:39:23.134Z,47.95
2023-05-03T00:41:49.692Z,47.77
2023-05-03T00:44:16.558Z,48.02
2023-05-03T00:46:43.185Z,47.90
2023-05-03T00:49:09.909Z,48.02
2023-05-03T00:51:37.067Z,48.70
2023-05-03T00:54:04.405Z,49.03
2023-05-03T00:56:37.994Z,48.56
2023-05-03T00:59:15.038Z,49.90
2023-05-03T01:01:41.612Z,48.59
2023-05-03T01:04:08.266Z,48.85
2023-05-03T01:06:37.771Z,48.71
2023-05-03T01:09:23.071Z,48.76
2023-05-03T01:12:05.566Z,48.92
2023-05-03T01:14:47.185Z,49.53
2023-05-03T01:17:14.425Z,49.20
2023-05-03T01:19:45.927Z,49.75
2023-05-03T01:22:31.370Z,49.80
2023-05-03T01:25:07.732Z,49.93
2023-05-03T01:27:34.491Z,50.55
2023-05-03T01:30:01.344Z,50.36
2023-05-03T01:32:49.547Z,50.08
2023-05-03T01:35:20.789Z,50.79
2023-05-03T01:37:48.231Z,50.59
2023-05-03T01:40:16.955Z,50.37
2023-05-03T01:42:43.542Z,50.32
2023-05-03T01:45:11.140Z,50.67
2023-05-03T01:47:37.860Z,51.63
2023-05-03T01:50:04.791Z,50.78
2023-05-03T01:52:31.536Z,50.44
2023-05-03T01:54:59.581Z,50.75
2023-05-03T01:57:26.270Z,51.15
2023-05-03T01:59:52.800Z,50.58
2023-05-03T02:02:19.378Z,52.24
2023-05-03T02:04:46.077Z,51.12
2023-05-03T02:07:12.713Z,51.02
2023-05-03T02:09:39.243Z,50.87
2023-05-03T02:12:05.905Z,51.41
2023-05-03T02:14:33.150Z,51.08
2023-05-03T02:17:00.560Z,50.97
2023-05-03T02:19:27.364Z,51.61
2023-05-03T02:21:53.933Z,50.89
2023-05-03T02:24:20.594Z,50.87
2023-05-03T02:26:47.232Z,50.99
2023-05-03T02:29:13.804Z,50.95
2023-05-03T02:31:40.386Z,50.91
2023-05-03T02:34:07.017Z,51.11
2023-05-03T02:36:33.583Z,50.74
2023-05-03T02:39:00.156Z,51.72
2023-05-03T02:41:27.219Z,52.89
2023-05-03T02:43:53.767Z,51.01
2023-05-03T02:46:20.606Z,51.06
2023-05-03T02:48:47.183Z,51.00
2023-05-03T02:51:13.993Z,51.30
2023-05-03T02:53:40.774Z,50.99
2023-05-03T02:56:07.557Z,51.95
2023-05-03T02:58:34.139Z,51.02
2023-05-03T03:01:00.754Z,51.65
2023-05-03T03:03:27.396Z,51.54
2023-05-03T03:05:53.975Z,51.99
2023-05-03T03:08:20.540Z,51.05
2023-05-03T03:10:47.208Z,51.79
2023-05-03T03:13:13.845Z,52.76
2023-05-03T03:15:40.558Z,51.95
2023-05-03T03:18:07.426Z,51.57
2023-05-03T03:20:34.041Z,51.20
2023-05-03T03:23:00.583Z,51.71
2023-05-03T03:25:27.092Z,51.25
2023-05-03T03:27:53.765Z,51.09
2023-05-03T03:30:20.266Z,52.08
2023-05-03T03:32:46.902Z,52.58
2023-05-03T03:35:13.449Z,51.66
2023-05-03T03:37:40.242Z,52.34
2023-05-03T03:40:07.863Z,51.68
2023-05-03T03:42:34.435Z,52.79
2023-05-03T03:45:01.000Z,52.07
2023-05-03T03:47:27.760Z,52.72
2023-05-03T03:49:54.386Z,51.81
2023-05-03T03:52:20.967Z,51.17
2023-05-03T03:54:47.496Z,51.96
2023-05-03T03:57:14.064Z,52.01
2023-05-03T03:59:41.047Z,52.14
2023-05-03T04:02:07.677Z,51.03
2023-05-03T04:04:34.309Z,52.48
2023-05-03T04:07:01.151Z,51.62
2023-05-03T04:09:27.754Z,52.28
2023-05-03T04:11:54.592Z,53.39
2023-05-03T04:14:21.634Z,53.77
2023-05-03T04:16:48.307Z,53.69
2023-05-03T04:19:17.880Z,52.04
2023-05-03T04:21:44.948Z,54.06
2023-05-03T04:24:15.103Z,53.26
2023-05-03T04:26:41.712Z,53.05
2023-05-03T04:29:08.316Z,53.60
2023-05-03T04:31:35.114Z,55.36
2023-05-03T04:34:01.789Z,55.82
2023-05-03T04:36:29.997Z,57.61
2023-05-03T04:38:56.957Z,55.24
2023-05-03T04:41:24.493Z,54.42
2023-05-03T04:43:51.401Z,60.73
2023-05-03T04:46:18.613Z,57.84
2023-05-03T04:48:46.089Z,62.98
2023-05-03T04:51:12.642Z,60.00
2023-05-03T04:53:40.253Z,65.63
2023-05-03T04:56:07.639Z,66.09
2023-05-03T04:58:34.219Z,64.47
2023-05-03T05:01:01.076Z,67.78
2023-05-03T05:03:27.800Z,70.00
2023-05-03T05:05:54.422Z,69.03
2023-05-03T05:08:21.237Z,70.03
2023-05-03T05:10:47.946Z,66.82
2023-05-03T05:13:14.606Z,71.36
2023-05-03T05:15:41.328Z,66.96
2023-05-03T05:18:09.324Z,69.02
2023-05-03T05:20:36.229Z,69.68
2023-05-03T05:23:02.910Z,70.40
2023-05-03T05:25:29.575Z,69.36
2023-05-03T05:27:56.170Z,67.94
2023-05-03T05:30:23.483Z,68.50
2023-05-03T05:32:50.084Z,67.65
2023-05-03T05:35:18.926Z,66.82
2023-05-03T05:37:45.589Z,66.08
2023-05-03T05:40:12.592Z,65.91
2023-05-03T05:42:39.244Z,66.05
2023-05-03T05:45:07.947Z,64.66
2023-05-03T05:47:34.665Z,64.19
2023-05-03T05:50:01.495Z,63.79
2023-05-03T05:52:29.821Z,63.71
2023-05-03T05:54:56.711Z,62.88
2023-05-03T05:57:23.254Z,62.03
2023-05-03T05:59:51.087Z,62.20
2023-05-03T06:02:18.879Z,61.00
2023-05-03T06:04:46.938Z,60.46
2023-05-03T06:07:14.630Z,59.12
2023-05-03T06:09:41.521Z,58.56
2023-05-03T06:12:08.254Z,58.22
2023-05-03T06:14:34.820Z,58.10
2023-05-03T06:17:02.184Z,58.37
2023-05-03T06:19:28.757Z,58.05
2023-05-03T06:21:55.291Z,57.41
2023-05-03T06:24:21.981Z,58.02
2023-05-03T06:26:48.788Z,57.50
2023-05-03T06:29:15.431Z,56.44
2023-05-03T06:31:42.153Z,56.37
2023-05-03T06:34:10.405Z,55.82
2023-05-03T06:36:37.885Z,55.53
2023-05-03T06:39:04.731Z,55.42
2023-05-03T06:41:32.958Z,54.89
2023-05-03T06:43:59.516Z,54.77
2023-05-03T06:46:27.400Z,54.90
2023-05-03T06:48:56.388Z,54.46
2023-05-03T06:51:27.458Z,54.58
2023-05-03T06:53:54.998Z,54.85
2023-05-03T06:56:21.885Z,54.64
2023-05-03T06:58:48.674Z,54.72
2023-05-03T07:01:15.631Z,54.01
2023-05-03T07:03:42.297Z,54.01
2023-05-03T07:06:08.995Z,53.62
2023-05-03T07:08:35.751Z,54.09
2023-05-03T07:11:02.261Z,54.17
2023-05-03T07:13:28.793Z,53.59
2023-05-03T07:15:55.517Z,53.85
2023-05-03T07:18:22.116Z,53.88
2023-05-03T07:20:48.887Z,53.60
2023-05-03T07:23:15.753Z,53.79
2023-05-03T07:25:42.839Z,54.27
2023-05-03T07:28:09.471Z,54.12
2023-05-03T07:30:36.107Z,53.84
2023-05-03T07:33:02.819Z,54.15
2023-05-03T07:35:29.767Z,53.89
2023-05-03T07:37:57.060Z,54.23
2023-05-03T07:40:23.696Z,54.62
2023-05-03T07:42:50.326Z,53.73
2023-05-03T07:45:17.100Z,53.32
2023-05-03T07:47:43.702Z,53.85
2023-05-03T07:50:10.428Z,53.45
2023-05-03T07:52:37.235Z,53.74
2023-05-03T07:55:04.183Z,53.59
2023-05-03T07:57:31.112Z,53.36
2023-05-03T07:59:57.672Z,53.30
2023-05-03T08:02:24.351Z,53.51
2023-05-03T08:04:51.128Z,53.50
2023-05-03T08:07:17.762Z,53.58
2023-05-03T08:09:44.329Z,53.58
2023-05-03T08:12:11.072Z,53.07
2023-05-03T08:14:37.755Z,52.92
2023-05-03T08:17:06.945Z,52.84
2023-05-03T08:19:33.462Z,52.68
2023-05-03T08:22:00.003Z,52.70
2023-05-03T08:24:27.007Z,53.11
2023-05-03T08:26:53.803Z,52.64
2023-05-03T08:29:21.122Z,52.41
2023-05-03T08:31:47.704Z,52.54
2023-05-03T08:34:14.404Z,52.57
2023-05-03T08:36:41.613Z,54.20
2023-05-03T08:39:09.397Z,54.77
2023-05-03T08:41:36.067Z,54.04
2023-05-03T08:44:05.637Z,54.00
2023-05-03T08:46:32.334Z,54.44
2023-05-03T08:48:59.350Z,56.33
2023-05-03T08:51:27.709Z,56.00
2023-05-03T08:53:54.456Z,54.93
2023-05-03T08:56:44.095Z,55.37
2023-05-03T08:59:11.711Z,58.03
2023-05-03T09:01:40.056Z,57.23
2023-05-03T09:04:07.784Z,61.53
2023-05-03T09:06:35.196Z,59.49
2023-05-03T09:09:02.159Z,59.29
2023-05-03T09:11:30.266Z,60.12
2023-05-03T09:14:13.015Z,61.73
2023-05-03T09:16:40.993Z,65.90
2023-05-03T09:19:09.547Z,63.81
2023-05-03T09:21:36.457Z,67.30
2023-05-03T09:24:11.222Z,67.09
2023-05-03T09:26:38.376Z,67.83
2023-05-03T09:29:05.370Z,70.27
2023-05-03T09:31:33.030Z,67.69
2023-05-03T09:33:59.974Z,66.92
2023-05-03T09:36:27.777Z,69.40
2023-05-03T09:38:55.563Z,73.94
2023-05-03T09:41:28.680Z,74.29
2023-05-03T09:43:56.831Z,74.57
2023-05-03T09:46:28.674Z,75.41
2023-05-03T09:48:57.056Z,79.16
2023-05-03T09:51:24.410Z,80.08
2023-05-03T09:53:51.544Z,73.53
2023-05-03T09:56:20.778Z,76.85
2023-05-03T09:58:47.824Z,78.41
2023-05-03T10:01:15.113Z,79.98
2023-05-03T10:03:44.130Z,74.16
2023-05-03T10:06:31.954Z,73.51
2023-05-03T10:09:06.580Z,72.77
2023-05-03T10:11:34.324Z,74.91
2023-05-03T10:14:01.245Z,72.10
2023-05-03T10:16:32.082Z,72.37
2023-05-03T10:19:14.012Z,72.08
2023-05-03T10:21:47.062Z,71.82
2023-05-03T10:24:14.457Z,70.64
2023-05-03T10:26:41.955Z,70.67
2023-05-03T10:29:28.862Z,71.30
2023-05-03T10:31:55.539Z,69.54
2023-05-03T10:34:25.690Z,69.57
2023-05-03T10:36:53.411Z,70.88
2023-05-03T10:39:20.688Z,69.79
2023-05-03T10:42:03.674Z,70.14
2023-05-03T10:44:40.537Z,70.71
2023-05-03T10:47:16.694Z,70.08
2023-05-03T10:49:43.416Z,68.72
2023-05-03T10:52:28.726Z,69.18
2023-05-03T10:54:55.264Z,67.96
2023-05-03T10:57:27.409Z,67.08
2023-05-03T10:59:54.723Z,66.18
2023-05-03T11:02:27.451Z,65.34
2023-05-03T11:04:56.754Z,60.30
2023-05-03T11:07:23.450Z,58.98
2023-05-03T11:09:49.988Z,52.41
2023-05-03T11:12:17.189Z,54.28
2023-05-03T11:14:43.827Z,50.81
2023-05-03T11:17:10.690Z,50.34
2023-05-03T11:19:37.975Z,48.32
2023-05-03T11:22:04.603Z,44.42
2023-05-03T11:24:31.212Z,44.29
2023-05-03T11:26:57.861Z,42.56
2023-05-03T11:29:25.040Z,44.78
2023-05-03T11:31:52.489Z,40.16
2023-05-03T11:34:19.268Z,42.27
2023-05-03T11:36:45.821Z,42.83
2023-05-03T11:39:13.152Z,43.76
2023-05-03T11:41:41.849Z,42.55
2023-05-03T11:46:41.729Z,43.62
2023-05-03T11:49:08.448Z,40.45
2023-05-03T11:51:35.081Z,42.27
2023-05-03T11:54:17.097Z,41.70
2023-05-03T11:56:52.812Z,41.82
2023-05-03T11:59:20.158Z,40.42
2023-05-03T12:01:49.468Z,41.67
2023-05-03T12:04:17.034Z,42.62
2023-05-03T12:06:52.727Z,44.28
2023-05-03T12:09:22.906Z,43.99
2023-05-03T12:11:51.869Z,42.49
2023-05-03T12:14:20.031Z,42.62
2023-05-03T12:16:50.353Z,42.43
2023-05-03T12:19:44.070Z,44.59
2023-05-03T12:22:25.765Z,47.10
2023-05-03T12:24:53.916Z,46.47
2023-05-03T12:27:23.423Z,46.69
2023-05-03T12:29:51.867Z,45.58
2023-05-03T12:32:18.651Z,43.53
2023-05-03T12:34:46.945Z,42.65
2023-05-03T12:37:16.932Z,41.30
2023-05-03T12:39:46.177Z,41.60
2023-05-03T12:42:19.520Z,40.47
2023-05-03T12:44:48.547Z,42.32
2023-05-03T12:47:19.418Z,43.97
2023-05-03T12:49:53.844Z,45.46
2023-05-03T12:52:37.216Z,47.70
2023-05-03T12:55:10.379Z,49.44
2023-05-03T12:57:38.346Z,51.14
2023-05-03T13:00:13.560Z,50.09
2023-05-03T13:03:20.223Z,47.14
2023-05-03T13:05:35.101Z,45.22
2023-05-03T13:08:09.312Z,44.99
2023-05-03T13:10:37.559Z,46.75
2023-05-03T13:13:04.339Z,47.36
2023-05-03T13:15:31.247Z,48.84
2023-05-03T13:18:01.589Z,50.58
2023-05-03T13:20:28.997Z,49.93
2023-05-03T13:22:55.789Z,53.37
2023-05-03T13:25:22.326Z,54.12
2023-05-03T13:27:52.302Z,55.63
2023-05-03T13:30:21.326Z,56.22
2023-05-03T13:32:47.883Z,55.44
2023-05-03T13:35:14.445Z,54.79
2023-05-03T13:37:41.036Z,51.91
2023-05-03T13:40:08.121Z,49.69
2023-05-03T13:42:35.092Z,47.22
2023-05-03T13:45:01.743Z,48.53
2023-05-03T13:47:41.906Z,49.02
2023-05-03T13:50:16.692Z,51.52
2023-05-03T13:52:44.791Z,52.17
2023-05-03T13:55:11.668Z,53.50
2023-05-03T13:57:38.261Z,53.46
2023-05-03T14:00:07.566Z,53.31
2023-05-03T14:02:34.365Z,55.96
2023-05-03T14:05:00.903Z,56.25
2023-05-03T14:07:27.573Z,56.36
2023-05-03T14:09:54.202Z,56.04
2023-05-03T14:12:20.854Z,55.48
2023-05-03T14:14:47.412Z,58.30
2023-05-03T14:17:14.158Z,59.89
2023-05-03T14:19:41.674Z,59.36
2023-05-03T14:22:08.478Z,59.67
2023-05-03T14:24:35.048Z,59.91
2023-05-03T14:27:01.834Z,58.96
2023-05-03T14:29:28.610Z,59.23
2023-05-03T14:31:57.396Z,60.70
2023-05-03T14:34:23.974Z,60.47
2023-05-03T14:36:51.189Z,61.21
2023-05-03T14:39:17.736Z,61.31
2023-05-03T14:41:44.405Z,61.30
2023-05-03T14:44:10.921Z,60.95
2023-05-03T14:46:38.080Z,60.70
2023-05-03T14:49:05.184Z,62.64
2023-05-03T14:51:32.406Z,60.94
2023-05-03T14:53:59.392Z,63.11
2023-05-03T14:56:26.190Z,62.82
2023-05-03T14:58:52.798Z,60.91
2023-05-03T15:01:20.214Z,63.45
2023-05-03T15:03:46.981Z,63.52
2023-05-03T15:06:13.632Z,62.13
2023-05-03T15:08:40.270Z,63.10
2023-05-03T15:11:07.882Z,64.54
2023-05-03T15:13:34.944Z,64.74
2023-05-03T15:16:01.743Z,65.39
2023-05-03T15:18:28.422Z,63.38
2023-05-03T15:20:55.239Z,64.75
2023-05-03T15:23:21.767Z,64.63
2023-05-03T15:25:48.379Z,64.35
2023-05-03T15:28:15.050Z,66.19
2023-05-03T15:30:41.723Z,64.76
2023-05-03T15:33:10.877Z,66.55
2023-05-03T15:35:41.346Z,67.89
2023-05-03T15:38:08.454Z,66.58
2023-05-03T15:40:35.195Z,66.48
2023-05-03T15:43:01.825Z,69.26
2023-05-03T15:45:29.034Z,69.37
2023-05-03T15:47:58.861Z,70.12
2023-05-03T15:50:25.735Z,67.41
2023-05-03T15:52:52.298Z,69.32
2023-05-03T15:55:19.332Z,68.01
2023-05-03T15:57:45.980Z,67.19
2023-05-03T16:00:13.300Z,67.95
2023-05-03T16:02:40.342Z,69.08
2023-05-03T16:05:07.377Z,68.19
2023-05-03T16:07:34.097Z,68.15
2023-05-03T16:10:00.939Z,70.51
2023-05-03T16:12:27.829Z,69.43
2023-05-03T16:14:55.583Z,71.78
2023-05-03T16:17:22.493Z,73.01
2023-05-03T16:19:49.059Z,74.73
2023-05-03T16:22:16.947Z,76.81
2023-05-03T16:24:44.063Z,73.45
2023-05-03T16:27:10.729Z,73.66
2023-05-03T16:29:39.027Z,73.39
2023-05-03T16:32:09.730Z,73.34
2023-05-03T16:34:36.917Z,75.87
2023-05-03T16:37:03.902Z,77.02
2023-05-03T16:39:31.046Z,76.35
2023-05-03T16:41:57.641Z,75.05
2023-05-03T16:44:24.957Z,75.21
2023-05-03T16:46:51.736Z,76.04
2023-05-03T16:49:18.453Z,78.27
2023-05-03T16:51:45.138Z,78.36
2023-05-03T16:54:12.834Z,78.04
2023-05-03T16:56:39.404Z,80.89
2023-05-03T16:59:06.001Z,80.96
2023-05-03T17:01:32.908Z,81.00
2023-05-03T17:03:59.606Z,82.50
2023-05-03T17:06:27.337Z,82.65
2023-05-03T17:08:54.422Z,85.36
2023-05-03T17:11:22.408Z,86.58
2023-05-03T17:13:49.089Z,84.87
2023-05-03T17:16:15.915Z,86.59
2023-05-03T17:18:42.994Z,89.56
2023-05-03T17:21:10.212Z,87.93
2023-05-03T17:23:38.219Z,87.55
2023-05-03T17:26:05.858Z,85.11
2023-05-03T17:28:32.718Z,88.27
2023-05-03T17:30:59.443Z,86.40
2023-05-03T17:33:26.216Z,88.77
2023-05-03T17:35:53.255Z,87.11
2023-05-03T17:38:19.832Z,91.26
2023-05-03T17:40:46.508Z,91.63
2023-05-03T17:43:13.802Z,91.11
2023-05-03T17:45:41.432Z,90.71
2023-05-03T17:48:08.011Z,88.56
2023-05-03T17:50:34.634Z,89.67
2023-05-03T17:53:01.374Z,89.98
2023-05-03T17:55:28.154Z,88.19
2023-05-03T17:57:54.757Z,88.58
2023-05-03T18:00:22.488Z,87.93
2023-05-03T18:02:49.406Z,85.79
2023-05-03T18:05:16.402Z,87.56
2023-05-03T18:07:43.421Z,87.20
2023-05-03T18:10:14.506Z,87.54
2023-05-03T18:12:41.444Z,87.81
2023-05-03T18:15:08.614Z,87.19
2023-05-03T18:17:35.169Z,85.67
2023-05-03T18:20:02.283Z,85.77
2023-05-03T18:22:29.988Z,79.96
2023-05-03T18:25:02.106Z,79.78
2023-05-03T18:27:29.723Z,79.66
2023-05-03T18:29:56.297Z,79.74
2023-05-03T18:32:23.957Z,77.89
2023-05-03T18:34:50.678Z,77.56
2023-05-03T18:37:17.767Z,77.74
2023-05-03T18:39:44.439Z,76.26
2023-05-03T18:42:11.288Z,76.96
2023-05-03T18:44:39.684Z,77.28
2023-05-03T18:47:07.731Z,77.75
2023-05-03T18:49:34.402Z,77.25
2023-05-03T18:52:01.337Z,77.92
2023-05-03T18:54:28.016Z,76.99
2023-05-03T18:56:55.361Z,76.74
2023-05-03T18:59:21.971Z,76.93
2023-05-03T19:01:48.675Z,76.78
2023-05-03T19:04:15.828Z,76.78
2023-05-03T19:06:42.771Z,76.73
2023-05-03T19:09:13.671Z,76.57
2023-05-03T19:11:41.549Z,76.56
2023-05-03T19:14:08.537Z,76.96
2023-05-03T19:16:35.299Z,76.82
2023-05-03T19:19:02.305Z,76.52
2023-05-03T19:21:29.332Z,76.64
2023-05-03T19:23:55.922Z,76.68
2023-05-03T19:26:22.548Z,76.74
2023-05-03T19:28:49.201Z,76.86
2023-05-03T19:31:15.844Z,76.64
2023-05-03T19:33:42.452Z,76.71
2023-05-03T19:36:12.565Z,76.69
2023-05-03T19:38:39.195Z,76.83
2023-05-03T19:41:09.573Z,78.29
2023-05-03T19:43:36.240Z,77.11
2023-05-03T19:46:02.952Z,77.15
2023-05-03T19:48:29.739Z,77.07
2023-05-03T19:50:56.321Z,77.13
2023-05-03T19:53:23.856Z,77.53
2023-05-03T19:56:00.880Z,77.84
2023-05-03T19:58:28.013Z,77.98
2023-05-03T20:00:54.735Z,78.44
2023-05-03T20:03:22.721Z,78.41
2023-05-03T20:05:51.526Z,78.86
2023-05-03T20:08:18.178Z,79.20
2023-05-03T20:10:46.401Z,79.58
2023-05-03T20:13:13.476Z,80.02
2023-05-03T20:15:40.227Z,80.25
2023-05-03T20:18:07.159Z,81.90
2023-05-03T20:20:33.798Z,82.90
2023-05-03T20:23:00.386Z,81.02
2023-05-03T20:25:27.287Z,78.91
2023-05-03T20:27:53.918Z,78.34
2023-05-03T20:30:20.572Z,77.76
2023-05-03T20:32:47.300Z,76.88
2023-05-03T20:35:14.178Z,76.96
2023-05-03T20:37:40.834Z,76.52
2023-05-03T20:40:07.875Z,76.19
2023-05-03T20:42:54.684Z,76.26
2023-05-03T20:45:21.379Z,74.83
2023-05-03T20:47:48.079Z,74.75
2023-05-03T20:50:14.914Z,73.69
2023-05-03T20:52:41.827Z,71.67
2023-05-03T20:55:08.601Z,72.93
2023-05-03T20:57:39.301Z,72.91
2023-05-03T21:00:07.234Z,72.31
2023-05-03T21:02:33.983Z,72.14
2023-05-03T21:05:00.825Z,72.27
2023-05-03T21:07:28.418Z,72.24
2023-05-03T21:09:55.040Z,72.21
2023-05-03T21:12:21.662Z,72.14
2023-05-03T21:14:48.247Z,71.79
2023-05-03T21:17:14.985Z,71.69
2023-05-03T21:19:41.544Z,71.44
2023-05-03T21:22:08.916Z,69.43
2023-05-03T21:24:35.572Z,70.65
2023-05-03T21:27:02.705Z,69.48
2023-05-03T21:29:29.278Z,69.78
2023-05-03T21:31:55.937Z,68.04
2023-05-03T21:34:22.533Z,68.78
2023-05-03T21:36:49.112Z,69.84
2023-05-03T21:39:16.081Z,69.49
2023-05-03T21:41:43.680Z,68.16
2023-05-03T21:44:10.384Z,69.59
2023-05-03T21:46:36.958Z,69.67
2023-05-03T21:49:03.554Z,69.37
2023-05-03T21:51:30.924Z,67.26
2023-05-03T21:53:57.483Z,68.29
2023-05-03T21:56:24.019Z,68.27
2023-05-03T21:58:50.575Z,67.93
2023-05-03T22:01:19.497Z,67.17
2023-05-03T22:03:46.333Z,68.34
2023-05-03T22:06:12.939Z,68.62
2023-05-03T22:08:39.586Z,69.07
2023-05-03T22:11:09.300Z,68.98
2023-05-03T22:13:50.277Z,69.53
2023-05-03T22:16:21.502Z,69.81
2023-05-03T22:18:48.098Z,69.92
2023-05-03T22:21:14.654Z,68.40
2023-05-03T22:23:41.209Z,66.61
2023-05-03T22:26:07.814Z,65.82
2023-05-03T22:28:34.546Z,67.68
2023-05-03T22:31:01.108Z,66.14
2023-05-03T22:33:27.835Z,63.13
2023-05-03T22:35:54.379Z,65.30
2023-05-03T22:38:21.000Z,62.97
2023-05-03T22:40:47.547Z,61.45
2023-05-03T22:43:14.098Z,64.80
2023-05-03T22:45:40.895Z,64.77
2023-05-03T22:48:07.617Z,59.88
2023-05-03T22:50:34.391Z,62.10
2023-05-03T22:53:01.292Z,63.50
2023-05-03T22:55:29.190Z,62.55
2023-05-03T22:57:55.817Z,62.98
2023-05-03T23:00:22.574Z,62.12
2023-05-03T23:02:49.296Z,62.09
2023-05-03T23:05:16.080Z,58.47
2023-05-03T23:07:43.259Z,59.60
2023-05-03T23:10:09.994Z,61.18
2023-05-03T23:12:36.800Z,62.45
2023-05-03T23:15:03.500Z,62.07
2023-05-03T23:17:30.455Z,59.32
2023-05-03T23:19:57.132Z,61.97
2023-05-03T23:22:23.673Z,60.30
2023-05-03T23:24:50.578Z,61.19
2023-05-03T23:27:17.203Z,61.20
2023-05-03T23:29:44.354Z,61.24
2023-05-03T23:32:11.471Z,61.41
2023-05-03T23:34:38.707Z,61.59
2023-05-03T23:37:05.238Z,62.37
2023-05-03T23:39:31.881Z,62.24
2023-05-03T23:41:58.992Z,62.39
2023-05-03T23:44:35.170Z,61.98
2023-05-03T23:47:09.070Z,61.73
2023-05-03T23:49:35.758Z,62.24
2023-05-03T23:52:02.327Z,62.59
2023-05-03T23:54:28.988Z,61.64
2023-05-03T23:56:55.562Z,62.06
2023-05-03T23:59:22.118Z,62.36
